Weather at Shenyang Taoxian International Airport

Public forecast

Using degrees Celsius for public forecast. Weather courtesy of forecast.io.

Current aviation weather report (METAR) for Shenyang Taoxian International Airport

Retrieved 2021/12/06 05:30 UTC (27 minutes ago):

ZYTX 060530Z 01004MPS 340V040 CAVOK 07/M08 Q1029 NOSIG

Aviation forecast (TAF) for Shenyang Taoxian International Airport

Retrieved 2021-12-06 00:03 UTC (6 hours ago):

TAF ZYTX 052104Z 0600/0624 35004MPS 6000 NSC TX05/0606Z TNM08/0621Z